Guerneville, CA (95446)

5:30 PM PDT on March 26, 2015 (GMT -0700)
Stumptown Brewery | | Change Station
CLOSE
Current Station
Personal Weather Station
Location: Guerneville, CA
Elevation: 55 ft
Nearby Weather Stations

Elev 55 ft 38.51 °N, 122.98 °W | Updated 1 minute ago

Clear
Clear
77.0 °F
Feels Like 78 °F
N
0.0
Wind Variable Wind from WNW
Gusts 10.0 mph

Today
High -- | Low -- °F
--% Chance of Precip.
Yesterday
High -- | Low -- °F
Precip. -- in
7:06 AM 7:29 PM
Waxing Crescent, 47% visible
Pressure 30.03 in
Visibility 10.0 miles
Clouds Clear
Heat Index 78 °F
Dew Point 53 °F
Humidity 44%
Rainfall 0.00 in
Snow Depth Not available.
UV 1.1 out of 12
Pollen 8.90 out of 12
Air Quality Not available.
Flu Activity Not available.
METAR KSTS 262353Z 19009KT 10SM CLR 27/14 A3005 RMK AO2 SLP169 T02720139 10283 20200 56016

More Conditions Fewer Conditions

Pressure 30.03 in
Visibility 10.0 miles
Clouds Clear
Heat Index 78 °F
Dew Point 53 °F
Humidity 44%
Rainfall 0.00 in
Snow Depth Not available.
UV 1.1 out of 12
Pollen 8.90 out of 12
Air Quality Not available.
Flu Activity Not available.
METAR KSTS 262353Z 19009KT 10SM CLR 27/14 A3005 RMK AO2 SLP169 T02720139 10283 20200 56016

More Conditions Fewer Conditions

10-Day Weather Forecast

Almanac

Astronomy

Mar. 26, 2015 Rise Set
Actual Time
Civil Twilight
Nautical Twilight
Astronomical Twilight
Moon
Length of Visible Light
Length of Day
Tomorrow will be .
, % of the Moon is Illuminated

Today's Extremes

State Highs State Lows

Community

WunderPhotos

Upload Photos

1,808,654 photos uploaded!

WunderBlogs® & News

Nearby

Air Quality

  Air Quality AQ Index Pollutant
Not available.

Snow Depth

Station Depth Elevation

Earthquake Activity

City Distance Mag. Time & Date
Minimum magnitude displayed is 2.5.

Coastal Water Temperatures

Place Temperature

Stations

Nearby Weather Stations

Station Location Temp. Windchill Dew Point Humidity Wind Precip. Elev Updated Type